Minneapolis, Minnesota
Traffic Map
Current Weather Conditions
Minneapolis, Minnesota
Broken Clouds
Broken Clouds
18°
Feels Like: 18°
Wind Chill: 18° Ceiling: 30000
Heat Index: 18° Visibility: 10mi
Dew Point: -4° Wind: 3mph
Humidity: 22% Direction: 20° (NNE)
Pressure: 30.14in Gusts: 0mph
Raw Report DataKMSP 280153Z 02003KT 10SM BKN300 18/M04 A3014 RMK AO2 SLP205 T01781044
Traffic Incident Summary
Active as of:
Severity:
Category:
InformationThere was an issue retrieving the traffic information for this location. Please try a different location or try again shortly.
Advertisements
Track Severe Weather on mobile